Time;durP1;ratioP1;P1;durP2;ratioP2;P2;SDS_P1;SDS_P2;PMS_P1;PMS_P2;Temp;Humidity;BMP_temperature;BMP_pressure;BME280_temperature;BME280_humidity;BME280_pressure;Samples;Min_cycle;Max_cycle;Signal;HPM_P1;HPM_P2
2022/11/18 00:01:37;;;;;;;15.50;11.10;;;2.30;99.90;;;;;;5001583;28;22672;-48
2022/11/18 00:04:04;;;;;;;16.67;11.07;;;2.30;99.90;;;;;;5020442;28;20277;-49
2022/11/18 00:06:32;;;;;;;15.20;11.00;;;2.30;99.90;;;;;;5010522;28;20211;-53
2022/11/18 00:09:00;;;;;;;16.23;11.17;;;2.30;99.90;;;;;;5021749;28;20211;-49
2022/11/18 00:14:19;;;;;;;14.67;10.73;;;2.30;99.90;;;;;;5020202;28;20590;-48
2022/11/18 00:16:47;;;;;;;14.70;9.93;;;2.20;99.90;;;;;;5019399;28;20912;-50
2022/11/18 00:19:14;;;;;;;17.40;10.90;;;2.20;99.90;;;;;;5008215;28;20298;-53
2022/11/18 00:21:42;;;;;;;18.23;11.60;;;2.20;99.90;;;;;;5006622;28;23525;-47
2022/11/18 00:24:09;;;;;;;16.93;10.90;;;2.20;99.90;;;;;;5022843;28;20261;-49
2022/11/18 00:26:36;;;;;;;20.40;12.57;;;2.20;99.90;;;;;;4999225;28;20200;-49
2022/11/18 00:29:04;;;;;;;20.20;12.77;;;2.20;99.90;;;;;;5021559;28;20226;-47
2022/11/18 00:31:31;;;;;;;19.57;12.03;;;2.20;99.90;;;;;;5016627;28;20625;-50
2022/11/18 00:33:57;;;;;;;16.83;11.30;;;2.20;99.90;;;;;;5008297;28;20342;-50
2022/11/18 00:36:24;;;;;;;19.57;11.97;;;2.20;99.90;;;;;;5017684;28;20207;-48
2022/11/18 00:38:53;;;;;;;19.10;12.07;;;2.20;99.90;;;;;;5018587;28;20226;-47
2022/11/18 00:41:21;;;;;;;17.63;11.50;;;2.20;99.90;;;;;;5016738;28;20207;-47
2022/11/18 00:43:47;;;;;;;18.70;11.77;;;2.20;99.90;;;;;;5001754;28;20207;-48
2022/11/18 00:46:14;;;;;;;18.00;11.83;;;2.20;99.90;;;;;;5022193;28;20216;-47
2022/11/18 00:48:41;;;;;;;19.90;12.47;;;2.20;99.90;;;;;;5017338;28;20196;-51
2022/11/18 00:51:13;;;;;;;17.77;11.57;;;2.20;99.90;;;;;;5005266;28;20625;-51
2022/11/18 00:53:40;;;;;;;17.03;10.90;;;2.20;99.90;;;;;;5009195;28;20206;-54
2022/11/18 00:56:08;;;;;;;15.87;10.97;;;2.10;99.90;;;;;;5021445;28;20207;-48
2022/11/18 00:58:36;;;;;;;17.77;11.97;;;2.10;99.90;;;;;;5012411;28;20902;-47
2022/11/18 01:01:04;;;;;;;20.73;12.40;;;2.10;99.90;;;;;;5020820;28;20207;-50
2022/11/18 01:03:31;;;;;;;17.53;12.43;;;2.00;99.90;;;;;;5016621;28;20207;-52
2022/11/18 01:05:58;;;;;;;15.17;10.57;;;2.00;99.90;;;;;;5009115;28;20227;-46
2022/11/18 01:08:25;;;;;;;17.03;10.97;;;2.00;99.90;;;;;;5017559;28;20204;-45
2022/11/18 01:10:53;;;;;;;17.23;11.50;;;1.90;99.90;;;;;;5019579;28;20193;-44
2022/11/18 01:13:22;;;;;;;17.33;11.27;;;1.90;99.90;;;;;;5017763;28;20215;-51
2022/11/18 01:15:51;;;;;;;18.70;12.10;;;1.90;99.90;;;;;;5017194;28;20306;-50
2022/11/18 01:18:22;;;;;;;17.10;12.20;;;1.90;99.90;;;;;;5014773;28;20383;-49
2022/11/18 01:20:50;;;;;;;20.03;12.23;;;1.90;99.90;;;;;;5007508;28;20219;-48
2022/11/18 01:23:17;;;;;;;18.57;12.07;;;1.80;99.90;;;;;;5023519;28;20203;-47
2022/11/18 01:25:46;;;;;;;18.20;11.80;;;1.90;99.90;;;;;;5022673;28;20222;-44
2022/11/18 01:28:14;;;;;;;19.40;12.53;;;1.90;99.90;;;;;;5020281;28;20210;-47
2022/11/18 01:30:42;;;;;;;20.53;13.00;;;1.90;99.90;;;;;;5021386;28;20246;-44
2022/11/18 01:33:09;;;;;;;19.67;13.27;;;1.90;99.90;;;;;;5019106;28;20740;-47
2022/11/18 01:35:42;;;;;;;18.07;12.73;;;1.90;99.90;;;;;;5015422;28;20224;-46
2022/11/18 01:38:11;;;;;;;19.97;12.53;;;1.80;99.90;;;;;;5011078;28;20203;-51
2022/11/18 01:40:38;;;;;;;19.77;12.97;;;1.80;99.90;;;;;;5019899;28;20199;-50
2022/11/18 01:43:10;;;;;;;20.40;11.47;;;1.80;99.90;;;;;;5022838;28;20196;-46
2022/11/18 01:45:39;;;;;;;19.10;12.40;;;1.80;99.90;;;;;;5005496;28;20217;-46
2022/11/18 01:48:12;;;;;;;20.63;12.63;;;1.80;99.90;;;;;;5020106;28;20236;-45
2022/11/18 01:50:43;;;;;;;18.43;11.87;;;1.80;99.90;;;;;;5020109;28;20198;-45
2022/11/18 01:53:15;;;;;;;18.27;12.37;;;1.80;99.90;;;;;;5010036;28;20208;-46
2022/11/18 01:55:47;;;;;;;18.90;13.07;;;1.70;99.90;;;;;;5021491;28;20219;-48
2022/11/18 01:58:20;;;;;;;17.37;11.97;;;1.70;99.90;;;;;;5022296;28;20195;-47
2022/11/18 02:00:47;;;;;;;18.97;12.57;;;1.70;99.90;;;;;;5014616;28;20394;-45
2022/11/18 02:03:17;;;;;;;18.10;11.83;;;1.70;99.90;;;;;;5015457;28;20207;-48
2022/11/18 02:05:45;;;;;;;16.53;11.83;;;1.70;99.90;;;;;;5014411;28;20412;-50
2022/11/18 02:08:12;;;;;;;20.17;13.73;;;1.70;99.90;;;;;;5024350;28;20196;-46
2022/11/18 02:10:39;;;;;;;18.47;11.90;;;1.70;99.90;;;;;;4993209;28;20205;-46
2022/11/18 02:13:07;;;;;;;18.90;12.90;;;1.70;99.90;;;;;;5011358;28;20235;-49
2022/11/18 02:15:47;;;;;;;19.20;12.50;;;1.60;99.90;;;;;;5010384;28;20231;-47
2022/11/18 02:18:25;;;;;;;17.47;12.07;;;1.60;99.90;;;;;;5006834;28;20211;-50
2022/11/18 02:20:56;;;;;;;22.27;13.73;;;1.60;99.90;;;;;;5011545;28;20200;-48
2022/11/18 02:24:20;;;;;;;17.83;13.17;;;1.60;99.90;;;;;;5012842;28;20253;-48
2022/11/18 02:27:13;;;;;;;19.43;12.90;;;1.60;99.90;;;;;;4955519;28;20214;-48
2022/11/18 02:29:48;;;;;;;18.93;12.43;;;1.60;99.90;;;;;;5012566;28;20216;-45
2022/11/18 02:32:19;;;;;;;23.37;13.17;;;1.60;99.90;;;;;;5014151;28;20226;-47
2022/11/18 02:34:51;;;;;;;18.13;13.10;;;1.60;99.90;;;;;;5024308;28;20220;-46
2022/11/18 02:37:23;;;;;;;18.73;13.17;;;1.60;99.90;;;;;;5016782;28;20883;-46
2022/11/18 02:39:56;;;;;;;19.90;13.90;;;1.60;99.90;;;;;;5020143;28;20215;-50
2022/11/18 02:42:24;;;;;;;18.23;12.67;;;1.60;99.90;;;;;;5008749;28;20192;-48
2022/11/18 02:44:56;;;;;;;21.27;13.30;;;1.60;99.90;;;;;;5012495;28;20766;-51
2022/11/18 02:47:27;;;;;;;16.70;11.83;;;1.70;99.90;;;;;;5002953;28;20309;-51
2022/11/18 02:49:58;;;;;;;18.50;12.67;;;1.70;99.90;;;;;;5011944;28;20203;-52
2022/11/18 02:52:27;;;;;;;18.73;11.93;;;1.60;99.90;;;;;;5020728;28;20215;-47
2022/11/18 02:54:55;;;;;;;19.03;12.63;;;1.60;99.90;;;;;;5019056;28;20306;-49
2022/11/18 02:57:24;;;;;;;20.53;13.37;;;1.60;99.90;;;;;;5012928;28;20278;-50
2022/11/18 02:59:52;;;;;;;20.07;13.27;;;1.70;99.90;;;;;;5021593;28;20207;-48
2022/11/18 03:02:23;;;;;;;18.13;11.37;;;1.60;99.90;;;;;;5009930;28;20908;-47
2022/11/18 03:04:54;;;;;;;15.83;11.67;;;1.60;99.90;;;;;;5024108;28;20227;-48
2022/11/18 03:07:27;;;;;;;19.77;12.63;;;1.60;99.90;;;;;;5021556;28;20403;-53
2022/11/18 03:09:56;;;;;;;15.17;11.60;;;1.60;99.90;;;;;;5023342;28;20203;-50
2022/11/18 03:12:33;;;;;;;17.40;11.47;;;1.60;99.90;;;;;;4998974;28;20396;-47
2022/11/18 03:15:11;;;;;;;18.27;12.07;;;1.60;99.90;;;;;;5021180;28;20234;-51
2022/11/18 03:17:47;;;;;;;14.77;10.97;;;1.60;99.90;;;;;;5006360;28;20205;-49
2022/11/18 03:20:21;;;;;;;18.83;12.47;;;1.60;99.90;;;;;;5013564;28;20877;-46
2022/11/18 03:22:54;;;;;;;15.23;11.93;;;1.60;99.90;;;;;;5023717;28;20195;-48
2022/11/18 03:25:28;;;;;;;17.57;12.23;;;1.60;99.90;;;;;;5020627;28;20223;-48
2022/11/18 03:28:07;;;;;;;15.93;11.67;;;1.50;99.90;;;;;;5008071;28;20218;-51
2022/11/18 03:30:40;;;;;;;19.40;12.10;;;1.60;99.90;;;;;;5023113;28;20196;-47
2022/11/18 03:33:11;;;;;;;19.27;13.13;;;1.50;99.90;;;;;;5006771;28;20253;-51
2022/11/18 03:35:42;;;;;;;18.40;11.37;;;1.50;99.90;;;;;;5018609;28;20580;-48
2022/11/18 03:38:12;;;;;;;18.70;11.90;;;1.60;99.90;;;;;;5018490;28;20200;-46
2022/11/18 03:40:44;;;;;;;14.10;10.87;;;1.60;99.90;;;;;;5018845;28;20200;-53
2022/11/18 03:43:15;;;;;;;19.63;12.73;;;1.50;99.90;;;;;;5009257;28;20684;-45
2022/11/18 03:45:48;;;;;;;17.00;11.97;;;1.50;99.90;;;;;;5019383;28;20225;-46
2022/11/18 03:48:18;;;;;;;16.00;11.57;;;1.60;99.90;;;;;;5014487;28;20287;-47
2022/11/18 03:50:50;;;;;;;14.93;11.17;;;1.60;99.90;;;;;;5013788;28;20227;-46
2022/11/18 03:53:20;;;;;;;17.77;11.37;;;1.50;99.90;;;;;;5022793;28;20243;-49
2022/11/18 03:55:51;;;;;;;16.67;11.53;;;1.60;99.90;;;;;;5019895;28;20220;-49
2022/11/18 03:58:25;;;;;;;17.80;11.67;;;1.60;99.90;;;;;;5023465;28;20676;-46
2022/11/18 04:00:59;;;;;;;17.27;12.03;;;1.60;99.90;;;;;;5011623;28;20203;-46
2022/11/18 04:03:26;;;;;;;14.57;10.57;;;1.60;99.90;;;;;;5009521;28;20219;-52
2022/11/18 04:06:00;;;;;;;17.80;11.67;;;1.50;99.90;;;;;;5006576;28;21978;-46
2022/11/18 04:08:33;;;;;;;17.97;12.57;;;1.60;99.90;;;;;;5015126;28;20203;-48
2022/11/18 04:11:04;;;;;;;18.10;12.27;;;1.60;99.90;;;;;;5021645;28;20192;-47
2022/11/18 04:13:34;;;;;;;16.50;12.17;;;1.60;99.90;;;;;;5020550;28;20219;-46
2022/11/18 04:16:03;;;;;;;18.10;12.27;;;1.60;99.90;;;;;;5007614;28;20234;-45
2022/11/18 04:18:30;;;;;;;20.43;12.93;;;1.60;99.90;;;;;;5021421;28;20646;-48
2022/11/18 04:20:57;;;;;;;18.50;11.87;;;1.60;99.90;;;;;;5012787;28;20207;-46
2022/11/18 04:23:24;;;;;;;21.10;12.97;;;1.60;99.90;;;;;;5021961;28;20210;-51
2022/11/18 04:25:50;;;;;;;18.60;12.50;;;1.60;99.90;;;;;;5020173;28;20219;-48
2022/11/18 04:28:17;;;;;;;25.03;16.33;;;1.60;99.90;;;;;;5023082;28;20211;-48
2022/11/18 04:30:44;;;;;;;20.90;14.20;;;1.60;99.90;;;;;;5004830;28;20200;-50
2022/11/18 04:33:12;;;;;;;21.60;13.43;;;1.60;99.90;;;;;;5022038;28;20266;-49
2022/11/18 04:35:39;;;;;;;18.33;13.50;;;1.60;99.90;;;;;;5007198;28;20235;-51
2022/11/18 04:38:06;;;;;;;18.83;13.50;;;1.60;99.90;;;;;;5019331;28;20206;-46
2022/11/18 04:40:33;;;;;;;20.77;14.90;;;1.50;99.90;;;;;;5021983;28;20200;-52
2022/11/18 04:43:00;;;;;;;20.50;13.53;;;1.60;99.90;;;;;;5025597;28;20218;-46
2022/11/18 04:45:27;;;;;;;19.40;14.37;;;1.60;99.90;;;;;;5025508;28;20223;-51
2022/11/18 04:47:54;;;;;;;20.23;13.67;;;1.60;99.90;;;;;;5010491;28;20933;-48
2022/11/18 04:50:22;;;;;;;20.37;14.87;;;1.60;99.90;;;;;;5020263;28;20200;-50
2022/11/18 04:52:49;;;;;;;18.40;13.57;;;1.50;99.90;;;;;;5016874;28;20220;-48
2022/11/18 04:55:16;;;;;;;22.07;14.13;;;1.50;99.90;;;;;;5026167;28;20609;-48
2022/11/18 04:57:43;;;;;;;21.90;14.30;;;1.50;99.90;;;;;;5022492;28;20188;-47
2022/11/18 05:00:11;;;;;;;22.47;13.83;;;1.50;99.90;;;;;;5026462;28;20204;-49
2022/11/18 05:02:37;;;;;;;20.47;13.70;;;1.50;99.90;;;;;;4999884;28;20222;-47
2022/11/18 05:05:05;;;;;;;22.57;14.50;;;1.50;99.90;;;;;;5024365;28;20219;-49
2022/11/18 05:07:34;;;;;;;22.07;15.03;;;1.50;99.90;;;;;;5014133;28;20582;-49
2022/11/18 05:10:00;;;;;;;22.00;15.23;;;1.50;99.90;;;;;;5022832;28;20211;-51
2022/11/18 05:15:12;;;;;;;17.63;13.30;;;1.50;99.90;;;;;;5025638;28;20642;-49
2022/11/18 05:17:39;;;;;;;23.43;14.70;;;1.50;99.90;;;;;;5008254;28;20229;-47
2022/11/18 05:20:07;;;;;;;21.17;14.20;;;1.50;99.90;;;;;;5024481;28;20550;-51
2022/11/18 05:22:35;;;;;;;20.47;14.00;;;1.50;99.90;;;;;;5011259;28;20203;-53
2022/11/18 05:25:02;;;;;;;20.80;14.17;;;1.50;99.90;;;;;;5019522;28;20248;-47
2022/11/18 05:27:29;;;;;;;21.70;13.77;;;1.50;99.90;;;;;;5022584;28;20706;-51
2022/11/18 05:29:56;;;;;;;25.73;14.80;;;1.50;99.90;;;;;;5024656;28;20211;-47
2022/11/18 05:32:24;;;;;;;23.40;15.03;;;1.50;99.90;;;;;;5014097;28;20211;-46
2022/11/18 05:34:51;;;;;;;21.53;13.80;;;1.50;99.90;;;;;;5010266;28;20610;-47
2022/11/18 05:37:18;;;;;;;22.03;14.60;;;1.40;99.90;;;;;;5015908;28;20203;-50
2022/11/18 05:39:46;;;;;;;21.80;14.30;;;1.50;99.90;;;;;;5014290;28;20672;-47
2022/11/18 05:44:58;;;;;;;23.87;14.87;;;1.40;99.90;;;;;;5019488;28;20294;-46
2022/11/18 05:47:25;;;;;;;21.43;13.83;;;1.50;99.90;;;;;;5014466;28;20212;-49
2022/11/18 05:49:52;;;;;;;19.00;14.07;;;1.50;99.90;;;;;;5010898;28;20702;-47
2022/11/18 05:52:18;;;;;;;27.40;14.80;;;1.50;99.90;;;;;;5005361;28;20212;-53
2022/11/18 05:54:49;;;;;;;24.07;16.33;;;1.50;99.90;;;;;;5008655;28;20234;-50
2022/11/18 05:57:17;;;;;;;22.87;14.97;;;1.50;99.90;;;;;;5001913;28;20286;-51
2022/11/18 05:59:44;;;;;;;25.13;15.37;;;1.40;99.90;;;;;;5014806;28;20687;-47
2022/11/18 06:02:14;;;;;;;21.70;15.37;;;1.40;99.90;;;;;;5014583;28;20218;-49
2022/11/18 06:04:45;;;;;;;22.70;15.07;;;1.40;99.90;;;;;;5009174;28;20234;-46
2022/11/18 06:07:16;;;;;;;22.50;14.67;;;1.40;99.90;;;;;;5015974;28;20210;-49
2022/11/18 06:09:48;;;;;;;22.07;14.47;;;1.40;99.90;;;;;;5012149;28;20207;-50
2022/11/18 06:12:18;;;;;;;23.47;15.07;;;1.40;99.90;;;;;;5013319;28;20286;-51
2022/11/18 06:14:49;;;;;;;25.63;15.40;;;1.40;99.90;;;;;;5018973;28;20224;-49
2022/11/18 06:17:19;;;;;;;21.97;14.07;;;1.40;99.90;;;;;;5011829;28;20203;-53
2022/11/18 06:19:46;;;;;;;23.73;14.87;;;1.40;99.90;;;;;;4996139;28;20204;-49
2022/11/18 06:22:14;;;;;;;25.17;15.10;;;1.40;99.90;;;;;;5014944;28;20230;-46
2022/11/18 06:24:43;;;;;;;25.30;15.47;;;1.40;99.90;;;;;;5007986;28;20231;-51
2022/11/18 06:27:12;;;;;;;24.03;15.10;;;1.30;99.90;;;;;;5006877;28;20226;-52
2022/11/18 06:29:39;;;;;;;23.47;15.47;;;1.30;99.90;;;;;;5014092;28;20230;-47
2022/11/18 06:32:06;;;;;;;23.53;15.37;;;1.30;99.90;;;;;;5018462;28;20195;-49
2022/11/18 06:34:33;;;;;;;23.57;15.10;;;1.40;99.90;;;;;;5001309;28;20345;-51
2022/11/18 06:37:11;;;;;;;24.67;15.43;;;1.30;99.90;;;;;;5022919;28;20207;-52
2022/11/18 06:39:37;;;;;;;25.17;15.53;;;1.40;99.90;;;;;;5021417;28;20682;-47
2022/11/18 06:42:04;;;;;;;22.60;14.43;;;1.30;99.90;;;;;;5003415;28;20204;-52
2022/11/18 06:44:31;;;;;;;23.83;14.73;;;1.30;99.90;;;;;;5007414;28;20311;-50
2022/11/18 06:46:58;;;;;;;20.43;14.23;;;1.30;99.90;;;;;;5015457;28;20196;-48
2022/11/18 06:49:26;;;;;;;23.43;15.17;;;1.30;99.90;;;;;;5012447;28;20195;-48
2022/11/18 06:51:54;;;;;;;22.00;14.27;;;1.20;99.90;;;;;;5007724;28;20631;-46
2022/11/18 06:54:21;;;;;;;20.10;13.70;;;1.20;99.90;;;;;;5016539;28;20234;-48
2022/11/18 06:56:47;;;;;;;21.70;14.33;;;1.20;99.90;;;;;;4998888;28;20842;-47
2022/11/18 06:59:20;;;;;;;24.37;15.33;;;1.20;99.90;;;;;;5013743;28;20196;-45
2022/11/18 07:01:48;;;;;;;21.80;14.43;;;1.20;99.90;;;;;;5013807;28;20205;-49
2022/11/18 07:04:16;;;;;;;23.13;14.37;;;1.20;99.90;;;;;;5019829;28;20212;-49
2022/11/18 07:06:42;;;;;;;23.50;13.83;;;1.30;99.90;;;;;;4998081;28;20222;-51
2022/11/18 07:09:09;;;;;;;22.33;15.13;;;1.30;99.90;;;;;;5020682;28;20204;-47
2022/11/18 07:11:39;;;;;;;21.20;13.87;;;1.30;99.90;;;;;;5018329;28;20720;-50
2022/11/18 07:14:05;;;;;;;21.07;14.00;;;1.30;99.90;;;;;;5021762;28;20330;-49
2022/11/18 07:16:34;;;;;;;21.00;14.07;;;1.30;99.90;;;;;;5012654;28;20690;-53
2022/11/18 07:19:09;;;;;;;22.23;14.77;;;1.30;99.90;;;;;;5010475;28;20192;-50
2022/11/18 07:21:40;;;;;;;22.20;14.33;;;1.30;99.90;;;;;;4989544;28;20389;-51
2022/11/18 07:24:08;;;;;;;20.80;14.30;;;1.30;99.90;;;;;;5008718;28;20309;-49
2022/11/18 07:26:36;;;;;;;20.20;13.57;;;1.30;99.90;;;;;;5009671;28;20210;-48
2022/11/18 07:29:03;;;;;;;22.50;14.63;;;1.30;99.90;;;;;;5008167;28;20203;-48
2022/11/18 07:31:30;;;;;;;23.47;14.63;;;1.30;99.90;;;;;;5012044;28;20210;-53
2022/11/18 07:33:58;;;;;;;23.33;15.23;;;1.30;99.90;;;;;;5013071;28;20314;-52
2022/11/18 07:36:27;;;;;;;24.10;15.10;;;1.40;99.90;;;;;;5018305;28;20203;-50
2022/11/18 07:38:55;;;;;;;22.63;14.27;;;1.40;99.90;;;;;;4997918;28;20301;-52
2022/11/18 07:41:23;;;;;;;22.00;14.63;;;1.40;99.90;;;;;;5007995;28;20274;-50
2022/11/18 07:43:52;;;;;;;23.30;15.60;;;1.40;99.90;;;;;;4983852;28;20211;-47
2022/11/18 07:46:20;;;;;;;27.20;16.13;;;1.40;99.90;;;;;;5002328;28;20197;-53
2022/11/18 07:48:49;;;;;;;28.90;14.97;;;1.40;99.90;;;;;;5008772;28;20208;-47
2022/11/18 07:51:18;;;;;;;20.17;13.77;;;1.30;99.90;;;;;;5013076;28;20212;-48
2022/11/18 07:53:46;;;;;;;23.80;13.67;;;1.30;99.90;;;;;;4998342;28;20229;-52
2022/11/18 07:56:13;;;;;;;25.93;14.77;;;1.30;99.90;;;;;;5018767;28;20232;-52
2022/11/18 07:58:42;;;;;;;20.87;13.90;;;1.30;99.90;;;;;;5013527;28;20211;-49
2022/11/18 08:01:10;;;;;;;20.50;12.63;;;1.30;99.90;;;;;;5016274;28;20208;-50
2022/11/18 08:03:37;;;;;;;23.23;14.17;;;1.30;99.90;;;;;;5013299;28;20204;-51
2022/11/18 08:06:05;;;;;;;21.10;13.90;;;1.30;99.90;;;;;;5019727;28;20202;-52
2022/11/18 08:08:33;;;;;;;24.07;14.03;;;1.30;99.90;;;;;;5009293;28;20730;-50
2022/11/18 08:11:02;;;;;;;20.63;12.83;;;1.40;99.90;;;;;;4998797;28;20209;-50
2022/11/18 08:13:30;;;;;;;22.00;12.67;;;1.30;99.90;;;;;;5009259;28;20208;-47
2022/11/18 08:15:56;;;;;;;19.37;12.80;;;1.30;99.90;;;;;;5007327;28;20227;-47
2022/11/18 08:18:24;;;;;;;20.03;14.27;;;1.40;99.90;;;;;;5013673;28;20313;-50
2022/11/18 08:20:51;;;;;;;20.40;14.20;;;1.30;99.90;;;;;;5011368;28;20215;-49
2022/11/18 08:23:18;;;;;;;19.50;13.07;;;1.40;99.90;;;;;;5016987;28;20204;-49
2022/11/18 08:25:45;;;;;;;21.37;13.47;;;1.40;99.90;;;;;;4998667;28;20226;-52
2022/11/18 08:28:14;;;;;;;18.43;12.97;;;1.40;99.90;;;;;;5005989;28;20441;-49
2022/11/18 08:30:41;;;;;;;20.70;13.13;;;1.40;99.90;;;;;;5016065;28;20196;-53
2022/11/18 08:33:08;;;;;;;22.10;13.63;;;1.40;99.90;;;;;;5012908;28;20199;-48
2022/11/18 08:35:35;;;;;;;21.33;12.90;;;1.40;99.90;;;;;;5010968;28;20227;-52
2022/11/18 08:38:01;;;;;;;18.03;12.37;;;1.40;99.90;;;;;;5018694;28;20196;-50
2022/11/18 08:40:28;;;;;;;19.33;12.70;;;1.40;99.90;;;;;;5006538;28;20560;-48
2022/11/18 08:42:54;;;;;;;17.10;12.37;;;1.40;99.90;;;;;;5016297;28;20195;-48
2022/11/18 08:45:23;;;;;;;19.83;13.67;;;1.50;99.90;;;;;;5014858;28;20227;-51
2022/11/18 08:47:50;;;;;;;16.90;12.17;;;1.50;99.90;;;;;;5013850;28;21697;-52
2022/11/18 08:50:16;;;;;;;16.47;11.43;;;1.50;99.90;;;;;;5012427;28;20196;-49
2022/11/18 08:52:43;;;;;;;13.77;10.13;;;1.50;99.90;;;;;;5011847;28;20246;-52
2022/11/18 08:55:10;;;;;;;16.13;10.97;;;1.50;99.90;;;;;;5017441;28;20231;-47
2022/11/18 08:57:37;;;;;;;14.53;10.40;;;1.50;99.90;;;;;;5006765;28;20584;-49
2022/11/18 09:00:04;;;;;;;13.50;9.93;;;1.50;99.90;;;;;;5011280;28;20432;-49
2022/11/18 09:02:33;;;;;;;14.13;10.00;;;1.50;99.90;;;;;;5020302;28;20199;-47
2022/11/18 09:04:59;;;;;;;14.30;9.90;;;1.50;99.90;;;;;;5009474;28;20204;-46
2022/11/18 09:07:28;;;;;;;14.07;10.40;;;1.50;99.90;;;;;;5014229;28;20622;-48
2022/11/18 09:09:55;;;;;;;11.37;8.00;;;1.60;99.90;;;;;;5009456;28;20208;-49
2022/11/18 09:12:21;;;;;;;12.53;9.00;;;1.60;99.90;;;;;;4996200;28;20211;-48
2022/11/18 09:14:48;;;;;;;11.67;8.27;;;1.60;99.90;;;;;;5013533;28;20223;-53
2022/11/18 09:17:15;;;;;;;10.50;8.57;;;1.60;99.90;;;;;;5012326;28;20208;-47
2022/11/18 09:19:43;;;;;;;11.07;8.40;;;1.60;99.90;;;;;;5013293;28;20254;-50
2022/11/18 09:22:10;;;;;;;10.63;8.43;;;1.70;99.90;;;;;;5001555;28;20243;-48
2022/11/18 09:24:37;;;;;;;9.13;7.77;;;1.70;99.90;;;;;;5017646;28;20620;-53
2022/11/18 09:27:05;;;;;;;11.07;7.70;;;1.70;99.90;;;;;;4997860;28;20275;-49
2022/11/18 09:29:32;;;;;;;10.67;8.03;;;1.70;99.90;;;;;;5019626;28;20207;-47
2022/11/18 09:32:00;;;;;;;9.97;7.67;;;1.80;99.90;;;;;;5013733;28;20211;-49
2022/11/18 09:34:28;;;;;;;10.47;8.00;;;1.80;99.90;;;;;;5021483;28;20281;-49
2022/11/18 09:36:56;;;;;;;9.33;7.10;;;1.80;99.90;;;;;;5011337;28;20262;-47
2022/11/18 09:39:23;;;;;;;10.83;7.90;;;1.80;99.90;;;;;;5016236;28;20207;-49
2022/11/18 09:42:00;;;;;;;11.83;7.23;;;1.80;99.90;;;;;;5001446;28;20211;-47
2022/11/18 09:44:44;;;;;;;8.53;6.73;;;1.80;99.90;;;;;;5021449;28;20227;-46
2022/11/18 09:47:22;;;;;;;9.17;6.70;;;1.90;99.90;;;;;;5022802;28;20196;-49
2022/11/18 09:49:49;;;;;;;9.23;7.07;;;1.90;99.90;;;;;;5020280;28;20207;-52
2022/11/18 09:52:21;;;;;;;7.80;6.37;;;1.90;99.90;;;;;;5011117;28;20200;-47
2022/11/18 09:54:48;;;;;;;10.53;7.13;;;1.90;99.90;;;;;;5009472;28;20570;-50
2022/11/18 09:57:17;;;;;;;9.87;7.13;;;2.00;99.90;;;;;;5018087;28;20199;-48
2022/11/18 09:59:44;;;;;;;11.87;7.10;;;2.00;99.90;;;;;;5005304;28;20218;-50
2022/11/18 10:02:42;;;;;;;10.70;7.00;;;2.00;99.90;;;;;;5009998;28;20227;-47
2022/11/18 10:05:16;;;;;;;9.30;6.80;;;2.00;99.90;;;;;;5013730;28;20209;-49
2022/11/18 10:07:52;;;;;;;7.70;6.40;;;2.10;99.90;;;;;;5014973;28;20454;-51
2022/11/18 10:10:24;;;;;;;7.10;6.00;;;2.10;99.90;;;;;;5011171;28;20214;-47
2022/11/18 10:12:56;;;;;;;9.30;6.40;;;2.10;99.90;;;;;;4999571;28;20201;-50
2022/11/18 10:15:31;;;;;;;6.93;6.17;;;2.10;99.90;;;;;;5023641;28;20227;-54
2022/11/18 10:18:07;;;;;;;7.33;6.20;;;2.20;99.90;;;;;;5010196;28;20222;-54
2022/11/18 10:20:48;;;;;;;7.40;5.97;;;2.20;99.90;;;;;;5016053;28;20223;-54
2022/11/18 10:23:21;;;;;;;8.90;6.33;;;2.20;99.90;;;;;;5004448;28;20681;-47
2022/11/18 10:25:48;;;;;;;6.43;5.33;;;2.20;99.90;;;;;;5006021;28;20918;-47
2022/11/18 10:28:19;;;;;;;7.83;5.67;;;2.20;99.90;;;;;;5013630;28;20264;-50
2022/11/18 10:30:46;;;;;;;8.97;5.90;;;2.20;99.90;;;;;;5000582;28;20291;-52
2022/11/18 10:33:25;;;;;;;6.23;5.63;;;2.30;99.90;;;;;;5016794;28;20200;-51
2022/11/18 10:36:18;;;;;;;6.37;5.10;;;2.30;99.90;;;;;;5016654;28;20291;-50
2022/11/18 10:38:46;;;;;;;5.80;4.43;;;2.30;99.90;;;;;;5014284;28;20210;-49
2022/11/18 10:41:16;;;;;;;5.03;4.53;;;2.20;99.90;;;;;;5017312;28;20250;-54
2022/11/18 10:43:47;;;;;;;6.87;5.13;;;2.20;99.90;;;;;;4999634;28;20400;-55
2022/11/18 10:46:24;;;;;;;6.17;4.87;;;2.20;99.90;;;;;;5006186;28;20213;-56
2022/11/18 10:49:15;;;;;;;6.40;4.70;;;2.20;99.90;;;;;;5009888;28;20208;-53
2022/11/18 10:51:44;;;;;;;5.60;4.50;;;2.20;99.90;;;;;;5008758;28;20938;-52
2022/11/18 10:54:17;;;;;;;6.60;4.83;;;2.20;99.90;;;;;;5022686;28;20309;-55
2022/11/18 10:56:50;;;;;;;4.87;4.37;;;2.20;99.90;;;;;;5014323;28;20196;-52
2022/11/18 10:59:26;;;;;;;6.07;4.67;;;2.20;99.90;;;;;;5008779;28;20200;-57
2022/11/18 11:02:01;;;;;;;7.30;4.40;;;2.10;99.90;;;;;;5014605;28;20211;-52
2022/11/18 11:04:30;;;;;;;5.37;4.63;;;2.10;99.90;;;;;;5005074;28;20228;-54
2022/11/18 11:06:58;;;;;;;5.50;4.57;;;2.10;99.90;;;;;;5016334;28;20219;-55
2022/11/18 11:09:28;;;;;;;5.20;4.40;;;2.20;99.90;;;;;;5007329;28;20231;-56
2022/11/18 11:12:00;;;;;;;5.63;4.40;;;2.20;99.90;;;;;;5019412;28;20275;-56
2022/11/18 11:14:31;;;;;;;6.37;4.93;;;2.20;99.90;;;;;;5014884;28;20250;-57
2022/11/18 11:17:03;;;;;;;4.73;4.33;;;2.20;99.90;;;;;;5007288;28;20281;-51
2022/11/18 11:19:41;;;;;;;4.97;4.47;;;2.30;99.90;;;;;;5008275;28;21018;-53
2022/11/18 11:22:10;;;;;;;5.40;4.33;;;2.40;99.90;;;;;;5015203;28;20203;-55
2022/11/18 11:24:39;;;;;;;5.10;4.13;;;2.30;99.90;;;;;;5005964;28;20222;-52
2022/11/18 11:27:16;;;;;;;7.53;4.70;;;2.40;99.90;;;;;;5013515;28;20199;-54
2022/11/18 11:30:12;;;;;;;6.87;5.43;;;2.50;99.90;;;;;;5013596;28;20206;-54
2022/11/18 11:33:02;;;;;;;4.80;4.30;;;2.50;99.90;;;;;;5003740;28;20196;-57
2022/11/18 11:35:34;;;;;;;5.27;4.10;;;2.50;99.90;;;;;;5012260;28;20958;-56
2022/11/18 11:38:12;;;;;;;5.70;4.33;;;2.60;99.90;;;;;;5021394;28;20213;-52
2022/11/18 11:40:51;;;;;;;5.50;4.33;;;2.60;99.90;;;;;;5010225;28;20284;-57
2022/11/18 11:43:34;;;;;;;5.17;4.47;;;2.60;99.90;;;;;;5019950;28;20211;-55
2022/11/18 11:46:18;;;;;;;4.80;4.33;;;2.60;99.90;;;;;;5013900;28;20224;-54
2022/11/18 11:48:56;;;;;;;5.20;4.23;;;2.60;99.90;;;;;;5001855;28;20203;-54
2022/11/18 11:51:30;;;;;;;5.50;4.23;;;2.60;99.90;;;;;;5016446;28;20210;-55
2022/11/18 11:54:15;;;;;;;5.23;4.17;;;2.70;99.90;;;;;;5022452;28;20241;-53
2022/11/18 11:56:48;;;;;;;5.93;4.53;;;2.80;99.90;;;;;;5013564;28;20216;-56
2022/11/18 11:59:27;;;;;;;5.33;4.03;;;2.80;99.90;;;;;;5021094;28;20210;-57
2022/11/18 12:02:07;;;;;;;5.70;4.10;;;2.80;99.90;;;;;;5022463;28;20211;-57
2022/11/18 12:04:41;;;;;;;7.77;5.10;;;2.80;99.90;;;;;;4994246;28;20226;-54
2022/11/18 12:07:16;;;;;;;4.00;3.60;;;2.80;99.90;;;;;;5003829;28;20211;-53
2022/11/18 12:10:02;;;;;;;5.13;4.00;;;2.80;99.90;;;;;;5011073;28;20204;-59
2022/11/18 12:12:37;;;;;;;4.17;3.63;;;2.80;99.90;;;;;;5006914;28;20204;-59
2022/11/18 12:15:17;;;;;;;6.03;4.20;;;2.80;99.90;;;;;;5008752;28;20212;-59
2022/11/18 12:17:54;;;;;;;5.50;3.80;;;2.80;99.90;;;;;;5002003;28;20200;-59
2022/11/18 12:20:46;;;;;;;4.83;3.17;;;2.80;99.90;;;;;;5020198;28;20215;-58
2022/11/18 12:23:19;;;;;;;4.83;3.93;;;2.80;99.90;;;;;;5005969;28;20202;-59
2022/11/18 12:26:01;;;;;;;4.40;3.67;;;2.80;99.90;;;;;;5002928;28;20646;-54
2022/11/18 12:28:32;;;;;;;6.07;3.50;;;2.80;99.90;;;;;;5011703;28;20200;-55
2022/11/18 12:31:32;;;;;;;4.63;3.80;;;2.80;99.90;;;;;;5010633;28;20274;-55
2022/11/18 12:34:34;;;;;;;4.93;3.40;;;2.80;99.90;;;;;;4999247;28;20295;-62
2022/11/18 12:37:44;;;;;;;4.00;2.87;;;2.80;99.90;;;;;;4956829;28;21003;-55
2022/11/18 12:40:40;;;;;;;4.17;3.00;;;2.80;99.90;;;;;;4944294;28;20206;-51
2022/11/18 12:44:03;;;;;;;7.77;3.23;;;2.80;99.90;;;;;;4995007;28;20220;-56
2022/11/18 12:46:50;;;;;;;4.30;3.20;;;2.80;99.90;;;;;;5016860;28;20218;-59
2022/11/18 12:49:54;;;;;;;6.40;3.37;;;2.90;99.90;;;;;;5008257;28;20271;-53
2022/11/18 12:52:47;;;;;;;4.40;3.40;;;2.90;99.90;;;;;;5017256;28;20204;-51
2022/11/18 12:55:16;;;;;;;3.37;2.70;;;2.80;99.90;;;;;;5019797;28;20239;-51
2022/11/18 12:57:43;;;;;;;5.50;3.43;;;2.80;99.90;;;;;;5014849;28;20219;-54
2022/11/18 13:00:27;;;;;;;5.63;2.80;;;2.80;99.90;;;;;;5008028;28;20210;-53
2022/11/18 13:02:57;;;;;;;3.67;3.03;;;2.80;99.90;;;;;;5017649;28;20231;-54
2022/11/18 13:05:26;;;;;;;4.43;3.50;;;2.80;99.90;;;;;;5021276;28;20223;-52
2022/11/18 13:08:15;;;;;;;4.40;2.90;;;2.70;99.90;;;;;;5004039;28;20221;-54
2022/11/18 13:10:49;;;;;;;3.60;2.27;;;2.70;99.90;;;;;;5021549;28;20247;-50
2022/11/18 13:13:25;;;;;;;3.50;2.60;;;2.70;99.90;;;;;;5016631;28;20200;-52